sensor_id;sensor_type;location;lat;lon;timestamp;pressure;altitude;pressure_sealevel;temperature;humidity
77431;BME280;66498;48.564;19.272;2023-12-20T00:01:40;97544.84;;;-3.23;100.00
77431;BME280;66498;48.564;19.272;2023-12-20T00:04:06;97554.47;;;-3.15;100.00
77431;BME280;66498;48.564;19.272;2023-12-20T00:06:31;97560.94;;;-3.11;100.00
77431;BME280;66498;48.564;19.272;2023-12-20T00:08:56;97563.50;;;-3.11;100.00
77431;BME280;66498;48.564;19.272;2023-12-20T00:11:23;97552.69;;;-2.86;100.00
77431;BME280;66498;48.564;19.272;2023-12-20T00:13:49;97559.19;;;-3.20;100.00
77431;BME280;66498;48.564;19.272;2023-12-20T00:16:14;97549.72;;;-3.10;100.00
77431;BME280;66498;48.564;19.272;2023-12-20T00:18:39;97545.00;;;-3.05;100.00
77431;BME280;66498;48.564;19.272;2023-12-20T00:21:05;97535.94;;;-3.19;100.00
77431;BME280;66498;48.564;19.272;2023-12-20T00:23:30;97538.91;;;-3.04;100.00
77431;BME280;66498;48.564;19.272;2023-12-20T00:25:56;97536.22;;;-3.12;100.00
77431;BME280;66498;48.564;19.272;2023-12-20T00:28:21;97529.59;;;-3.05;100.00
77431;BME280;66498;48.564;19.272;2023-12-20T00:30:47;97529.44;;;-3.03;100.00
77431;BME280;66498;48.564;19.272;2023-12-20T00:33:13;97515.66;;;-3.31;100.00
77431;BME280;66498;48.564;19.272;2023-12-20T00:35:38;97514.31;;;-3.36;100.00
77431;BME280;66498;48.564;19.272;2023-12-20T00:38:04;97508.22;;;-3.35;100.00
77431;BME280;66498;48.564;19.272;2023-12-20T00:40:30;97504.88;;;-3.35;100.00
77431;BME280;66498;48.564;19.272;2023-12-20T00:42:56;97500.81;;;-3.18;100.00
77431;BME280;66498;48.564;19.272;2023-12-20T00:45:21;97501.47;;;-3.06;100.00
77431;BME280;66498;48.564;19.272;2023-12-20T00:47:47;97501.75;;;-3.10;100.00
77431;BME280;66498;48.564;19.272;2023-12-20T00:50:12;97502.16;;;-3.14;100.00
77431;BME280;66498;48.564;19.272;2023-12-20T00:52:37;97502.31;;;-3.25;100.00
77431;BME280;66498;48.564;19.272;2023-12-20T00:55:04;97489.03;;;-3.30;100.00
77431;BME280;66498;48.564;19.272;2023-12-20T00:57:29;97480.78;;;-3.44;100.00
77431;BME280;66498;48.564;19.272;2023-12-20T00:59:56;97478.66;;;-3.29;100.00
77431;BME280;66498;48.564;19.272;2023-12-20T01:02:21;97479.19;;;-3.35;100.00
77431;BME280;66498;48.564;19.272;2023-12-20T01:04:47;97477.16;;;-3.31;100.00
77431;BME280;66498;48.564;19.272;2023-12-20T01:07:12;97472.56;;;-3.38;100.00
77431;BME280;66498;48.564;19.272;2023-12-20T01:09:37;97469.03;;;-3.17;100.00
77431;BME280;66498;48.564;19.272;2023-12-20T01:12:03;97468.91;;;-3.54;100.00
77431;BME280;66498;48.564;19.272;2023-12-20T01:14:29;97470.69;;;-3.45;100.00
77431;BME280;66498;48.564;19.272;2023-12-20T01:16:54;97464.19;;;-3.49;100.00
77431;BME280;66498;48.564;19.272;2023-12-20T01:19:20;97463.25;;;-3.58;100.00
77431;BME280;66498;48.564;19.272;2023-12-20T01:21:45;97459.16;;;-3.70;100.00
77431;BME280;66498;48.564;19.272;2023-12-20T01:24:11;97445.16;;;-3.66;100.00
77431;BME280;66498;48.564;19.272;2023-12-20T01:26:36;97441.78;;;-3.76;100.00
77431;BME280;66498;48.564;19.272;2023-12-20T01:29:02;97448.09;;;-3.61;100.00
77431;BME280;66498;48.564;19.272;2023-12-20T01:31:27;97438.13;;;-3.45;100.00
77431;BME280;66498;48.564;19.272;2023-12-20T01:33:53;97434.88;;;-3.47;100.00
77431;BME280;66498;48.564;19.272;2023-12-20T01:36:18;97433.13;;;-3.37;100.00
77431;BME280;66498;48.564;19.272;2023-12-20T01:38:45;97425.28;;;-3.64;100.00
77431;BME280;66498;48.564;19.272;2023-12-20T01:41:10;97425.84;;;-3.80;100.00
77431;BME280;66498;48.564;19.272;2023-12-20T01:43:36;97419.47;;;-3.95;100.00
77431;BME280;66498;48.564;19.272;2023-12-20T01:46:01;97413.81;;;-3.89;100.00
77431;BME280;66498;48.564;19.272;2023-12-20T01:48:29;97419.88;;;-3.71;100.00
77431;BME280;66498;48.564;19.272;2023-12-20T01:51:01;97415.97;;;-3.55;100.00
77431;BME280;66498;48.564;19.272;2023-12-20T01:53:27;97417.06;;;-3.48;100.00
77431;BME280;66498;48.564;19.272;2023-12-20T01:55:55;97413.81;;;-3.50;100.00
77431;BME280;66498;48.564;19.272;2023-12-20T01:58:22;97421.22;;;-3.57;100.00
77431;BME280;66498;48.564;19.272;2023-12-20T02:00:48;97411.91;;;-3.39;100.00
77431;BME280;66498;48.564;19.272;2023-12-20T02:03:14;97407.72;;;-3.88;100.00
77431;BME280;66498;48.564;19.272;2023-12-20T02:05:39;97410.25;;;-4.08;100.00
77431;BME280;66498;48.564;19.272;2023-12-20T02:08:06;97407.84;;;-3.99;100.00
77431;BME280;66498;48.564;19.272;2023-12-20T02:10:32;97405.03;;;-3.87;100.00
77431;BME280;66498;48.564;19.272;2023-12-20T02:12:57;97403.28;;;-3.76;100.00
77431;BME280;66498;48.564;19.272;2023-12-20T02:15:23;97392.63;;;-3.52;100.00
77431;BME280;66498;48.564;19.272;2023-12-20T02:17:51;97390.84;;;-3.71;100.00
77431;BME280;66498;48.564;19.272;2023-12-20T02:20:17;97386.94;;;-3.66;100.00
77431;BME280;66498;48.564;19.272;2023-12-20T02:22:42;97372.38;;;-3.75;100.00
77431;BME280;66498;48.564;19.272;2023-12-20T02:25:08;97362.09;;;-3.85;100.00
77431;BME280;66498;48.564;19.272;2023-12-20T02:27:34;97362.09;;;-3.75;100.00
77431;BME280;66498;48.564;19.272;2023-12-20T02:30:00;97369.25;;;-3.59;100.00
77431;BME280;66498;48.564;19.272;2023-12-20T02:32:25;97368.03;;;-3.65;100.00
77431;BME280;66498;48.564;19.272;2023-12-20T02:34:54;97372.63;;;-3.68;100.00
77431;BME280;66498;48.564;19.272;2023-12-20T02:37:20;97368.47;;;-3.69;100.00
77431;BME280;66498;48.564;19.272;2023-12-20T02:39:45;97376.28;;;-3.61;100.00
77431;BME280;66498;48.564;19.272;2023-12-20T02:42:11;97363.97;;;-3.48;100.00
77431;BME280;66498;48.564;19.272;2023-12-20T02:44:36;97362.09;;;-3.46;100.00
77431;BME280;66498;48.564;19.272;2023-12-20T02:47:02;97362.91;;;-3.74;100.00
77431;BME280;66498;48.564;19.272;2023-12-20T02:49:28;97350.91;;;-3.93;100.00
77431;BME280;66498;48.564;19.272;2023-12-20T02:51:53;97334.84;;;-3.86;100.00
77431;BME280;66498;48.564;19.272;2023-12-20T02:54:37;97325.13;;;-3.72;100.00
77431;BME280;66498;48.564;19.272;2023-12-20T02:57:03;97319.44;;;-3.86;100.00
77431;BME280;66498;48.564;19.272;2023-12-20T02:59:28;97326.47;;;-3.78;100.00
77431;BME280;66498;48.564;19.272;2023-12-20T03:02:03;97329.56;;;-3.84;100.00
77431;BME280;66498;48.564;19.272;2023-12-20T03:04:28;97335.66;;;-3.85;100.00
77431;BME280;66498;48.564;19.272;2023-12-20T03:06:54;97327.84;;;-3.84;100.00
77431;BME280;66498;48.564;19.272;2023-12-20T03:09:19;97329.03;;;-3.78;100.00
77431;BME280;66498;48.564;19.272;2023-12-20T03:11:44;97317.84;;;-3.77;100.00
77431;BME280;66498;48.564;19.272;2023-12-20T03:14:10;97324.97;;;-3.81;100.00
77431;BME280;66498;48.564;19.272;2023-12-20T03:16:35;97317.69;;;-3.66;100.00
77431;BME280;66498;48.564;19.272;2023-12-20T03:19:01;97306.63;;;-3.86;100.00
77431;BME280;66498;48.564;19.272;2023-12-20T03:21:26;97299.75;;;-3.85;100.00
77431;BME280;66498;48.564;19.272;2023-12-20T03:23:52;97285.84;;;-3.92;100.00
77431;BME280;66498;48.564;19.272;2023-12-20T03:26:17;97288.53;;;-3.74;100.00
77431;BME280;66498;48.564;19.272;2023-12-20T03:28:44;97287.44;;;-3.62;100.00
77431;BME280;66498;48.564;19.272;2023-12-20T03:31:09;97295.28;;;-3.73;100.00
77431;BME280;66498;48.564;19.272;2023-12-20T03:33:35;97283.28;;;-3.73;100.00
77431;BME280;66498;48.564;19.272;2023-12-20T03:36:01;97294.50;;;-4.03;100.00
77431;BME280;66498;48.564;19.272;2023-12-20T03:38:26;97293.16;;;-4.07;100.00
77431;BME280;66498;48.564;19.272;2023-12-20T03:40:52;97298.41;;;-3.99;100.00
77431;BME280;66498;48.564;19.272;2023-12-20T03:43:17;97294.88;;;-4.08;100.00
77431;BME280;66498;48.564;19.272;2023-12-20T03:45:43;97284.13;;;-4.21;100.00
77431;BME280;66498;48.564;19.272;2023-12-20T03:48:09;97288.69;;;-4.05;100.00
77431;BME280;66498;48.564;19.272;2023-12-20T03:50:34;97281.78;;;-3.95;100.00
77431;BME280;66498;48.564;19.272;2023-12-20T03:53:00;97289.06;;;-3.81;100.00
77431;BME280;66498;48.564;19.272;2023-12-20T03:55:26;97290.28;;;-3.85;100.00
77431;BME280;66498;48.564;19.272;2023-12-20T03:57:51;97296.91;;;-3.92;100.00
77431;BME280;66498;48.564;19.272;2023-12-20T04:00:17;97283.81;;;-4.18;100.00
77431;BME280;66498;48.564;19.272;2023-12-20T04:02:43;97285.31;;;-4.15;100.00
77431;BME280;66498;48.564;19.272;2023-12-20T04:05:09;97285.84;;;-4.41;100.00
77431;BME280;66498;48.564;19.272;2023-12-20T04:07:35;97281.25;;;-4.57;100.00
77431;BME280;66498;48.564;19.272;2023-12-20T04:10:01;97284.75;;;-4.58;100.00
77431;BME280;66498;48.564;19.272;2023-12-20T04:12:28;97277.63;;;-4.54;100.00
77431;BME280;66498;48.564;19.272;2023-12-20T04:14:53;97279.59;;;-4.67;100.00
77431;BME280;66498;48.564;19.272;2023-12-20T04:17:20;97275.44;;;-4.59;100.00
77431;BME280;66498;48.564;19.272;2023-12-20T04:19:45;97268.28;;;-4.45;100.00
77431;BME280;66498;48.564;19.272;2023-12-20T04:22:11;97261.44;;;-4.25;100.00
77431;BME280;66498;48.564;19.272;2023-12-20T04:24:36;97264.97;;;-4.17;100.00
77431;BME280;66498;48.564;19.272;2023-12-20T04:27:02;97255.78;;;-4.10;100.00
77431;BME280;66498;48.564;19.272;2023-12-20T04:29:28;97249.69;;;-4.09;100.00
77431;BME280;66498;48.564;19.272;2023-12-20T04:31:54;97253.06;;;-4.18;100.00
77431;BME280;66498;48.564;19.272;2023-12-20T04:34:20;97257.94;;;-4.24;100.00
77431;BME280;66498;48.564;19.272;2023-12-20T04:36:46;97249.03;;;-4.20;100.00
77431;BME280;66498;48.564;19.272;2023-12-20T04:39:12;97234.47;;;-4.20;100.00
77431;BME280;66498;48.564;19.272;2023-12-20T04:41:38;97258.22;;;-4.37;100.00
77431;BME280;66498;48.564;19.272;2023-12-20T04:44:04;97257.91;;;-4.54;100.00
77431;BME280;66498;48.564;19.272;2023-12-20T04:46:29;97252.13;;;-4.36;100.00
77431;BME280;66498;48.564;19.272;2023-12-20T04:48:55;97249.56;;;-4.26;100.00
77431;BME280;66498;48.564;19.272;2023-12-20T04:51:21;97238.38;;;-4.35;100.00
77431;BME280;66498;48.564;19.272;2023-12-20T04:53:46;97241.03;;;-4.76;100.00
77431;BME280;66498;48.564;19.272;2023-12-20T04:56:12;97233.34;;;-4.85;100.00
77431;BME280;66498;48.564;19.272;2023-12-20T04:58:37;97240.72;;;-5.02;100.00
77431;BME280;66498;48.564;19.272;2023-12-20T05:01:04;97238.31;;;-4.84;100.00
77431;BME280;66498;48.564;19.272;2023-12-20T05:03:30;97233.91;;;-4.72;100.00
77431;BME280;66498;48.564;19.272;2023-12-20T05:05:56;97223.53;;;-4.70;100.00
77431;BME280;66498;48.564;19.272;2023-12-20T05:08:21;97226.47;;;-4.65;100.00
77431;BME280;66498;48.564;19.272;2023-12-20T05:10:47;97228.41;;;-4.58;100.00
77431;BME280;66498;48.564;19.272;2023-12-20T05:13:13;97227.16;;;-4.73;100.00
77431;BME280;66498;48.564;19.272;2023-12-20T05:15:38;97217.34;;;-4.68;100.00
77431;BME280;66498;48.564;19.272;2023-12-20T05:18:04;97218.56;;;-4.72;100.00
77431;BME280;66498;48.564;19.272;2023-12-20T05:20:29;97223.38;;;-4.59;100.00
77431;BME280;66498;48.564;19.272;2023-12-20T05:22:55;97225.16;;;-4.50;100.00
77431;BME280;66498;48.564;19.272;2023-12-20T05:25:20;97218.81;;;-4.46;100.00
77431;BME280;66498;48.564;19.272;2023-12-20T05:27:46;97219.09;;;-4.49;100.00
77431;BME280;66498;48.564;19.272;2023-12-20T05:30:11;97209.38;;;-4.45;100.00
77431;BME280;66498;48.564;19.272;2023-12-20T05:32:37;97204.13;;;-4.44;100.00
77431;BME280;66498;48.564;19.272;2023-12-20T05:35:03;97198.19;;;-4.54;100.00
77431;BME280;66498;48.564;19.272;2023-12-20T05:37:28;97203.84;;;-4.31;100.00
77431;BME280;66498;48.564;19.272;2023-12-20T05:39:54;97204.00;;;-4.62;100.00
77431;BME280;66498;48.564;19.272;2023-12-20T05:42:19;97198.59;;;-4.68;100.00
77431;BME280;66498;48.564;19.272;2023-12-20T05:44:45;97190.91;;;-4.59;100.00
77431;BME280;66498;48.564;19.272;2023-12-20T05:47:10;97188.22;;;-4.57;100.00
77431;BME280;66498;48.564;19.272;2023-12-20T05:49:37;97204.13;;;-4.54;100.00
77431;BME280;66498;48.564;19.272;2023-12-20T05:52:03;97202.09;;;-4.60;100.00
77431;BME280;66498;48.564;19.272;2023-12-20T05:54:28;97207.97;;;-5.08;100.00
77431;BME280;66498;48.564;19.272;2023-12-20T05:56:54;97211.44;;;-5.18;100.00
77431;BME280;66498;48.564;19.272;2023-12-20T05:59:19;97204.19;;;-5.04;100.00
77431;BME280;66498;48.564;19.272;2023-12-20T06:01:45;97221.38;;;-5.25;100.00
77431;BME280;66498;48.564;19.272;2023-12-20T06:04:10;97225.63;;;-5.45;100.00
77431;BME280;66498;48.564;19.272;2023-12-20T06:06:41;97228.63;;;-5.71;100.00
77431;BME280;66498;48.564;19.272;2023-12-20T06:09:07;97231.69;;;-5.77;100.00
77431;BME280;66498;48.564;19.272;2023-12-20T06:11:32;97222.91;;;-5.74;100.00
77431;BME280;66498;48.564;19.272;2023-12-20T06:13:58;97218.13;;;-5.88;100.00
77431;BME280;66498;48.564;19.272;2023-12-20T06:16:23;97226.38;;;-5.54;100.00
77431;BME280;66498;48.564;19.272;2023-12-20T06:18:49;97215.19;;;-5.32;100.00
77431;BME280;66498;48.564;19.272;2023-12-20T06:21:14;97221.28;;;-5.14;100.00
77431;BME280;66498;48.564;19.272;2023-12-20T06:23:40;97226.78;;;-5.59;100.00
77431;BME280;66498;48.564;19.272;2023-12-20T06:26:06;97227.31;;;-5.86;100.00
77431;BME280;66498;48.564;19.272;2023-12-20T06:28:31;97232.47;;;-5.76;100.00
77431;BME280;66498;48.564;19.272;2023-12-20T06:30:57;97233.16;;;-5.74;100.00
77431;BME280;66498;48.564;19.272;2023-12-20T06:33:22;97232.47;;;-5.76;100.00
77431;BME280;66498;48.564;19.272;2023-12-20T06:35:49;97234.28;;;-5.67;100.00
77431;BME280;66498;48.564;19.272;2023-12-20T06:38:14;97235.00;;;-5.55;100.00
77431;BME280;66498;48.564;19.272;2023-12-20T06:40:40;97233.59;;;-5.38;100.00
77431;BME280;66498;48.564;19.272;2023-12-20T06:43:05;97238.56;;;-5.37;100.00
77431;BME280;66498;48.564;19.272;2023-12-20T06:45:32;97246.38;;;-5.38;100.00
77431;BME280;66498;48.564;19.272;2023-12-20T06:47:57;97251.84;;;-5.53;100.00
77431;BME280;66498;48.564;19.272;2023-12-20T06:50:23;97247.00;;;-5.56;100.00
77431;BME280;66498;48.564;19.272;2023-12-20T06:52:49;97258.06;;;-5.76;100.00
77431;BME280;66498;48.564;19.272;2023-12-20T06:55:15;97248.22;;;-5.81;100.00
77431;BME280;66498;48.564;19.272;2023-12-20T06:57:40;97241.81;;;-5.35;100.00
77431;BME280;66498;48.564;19.272;2023-12-20T07:00:06;97230.31;;;-5.19;100.00
77431;BME280;66498;48.564;19.272;2023-12-20T07:02:33;97247.22;;;-5.28;100.00
77431;BME280;66498;48.564;19.272;2023-12-20T07:04:59;97251.81;;;-5.32;100.00
77431;BME280;66498;48.564;19.272;2023-12-20T07:07:25;97242.56;;;-5.23;100.00
77431;BME280;66498;48.564;19.272;2023-12-20T07:09:51;97232.06;;;-5.10;100.00
77431;BME280;66498;48.564;19.272;2023-12-20T07:12:17;97207.81;;;-5.16;100.00
77431;BME280;66498;48.564;19.272;2023-12-20T07:14:45;97211.75;;;-5.02;100.00
77431;BME280;66498;48.564;19.272;2023-12-20T07:17:10;97203.13;;;-5.01;100.00
77431;BME280;66498;48.564;19.272;2023-12-20T07:19:39;97192.09;;;-4.92;100.00
77431;BME280;66498;48.564;19.272;2023-12-20T07:22:06;97198.44;;;-4.77;100.00
77431;BME280;66498;48.564;19.272;2023-12-20T07:24:31;97209.91;;;-4.81;100.00
77431;BME280;66498;48.564;19.272;2023-12-20T07:26:57;97205.06;;;-4.55;100.00
77431;BME280;66498;48.564;19.272;2023-12-20T07:29:23;97217.06;;;-4.45;100.00
77431;BME280;66498;48.564;19.272;2023-12-20T07:31:48;97210.84;;;-4.53;100.00
77431;BME280;66498;48.564;19.272;2023-12-20T07:34:14;97205.34;;;-4.67;100.00
77431;BME280;66498;48.564;19.272;2023-12-20T07:36:39;97200.63;;;-4.43;100.00
77431;BME280;66498;48.564;19.272;2023-12-20T07:39:04;97206.28;;;-4.30;100.00
77431;BME280;66498;48.564;19.272;2023-12-20T07:41:30;97202.09;;;-4.50;100.00
77431;BME280;66498;48.564;19.272;2023-12-20T07:43:55;97197.94;;;-4.51;100.00
77431;BME280;66498;48.564;19.272;2023-12-20T07:46:22;97197.94;;;-4.51;100.00
77431;BME280;66498;48.564;19.272;2023-12-20T07:48:50;97198.44;;;-4.77;100.00
77431;BME280;66498;48.564;19.272;2023-12-20T07:51:16;97195.75;;;-4.65;100.00
77431;BME280;66498;48.564;19.272;2023-12-20T07:53:45;97203.59;;;-4.57;100.00
77431;BME280;66498;48.564;19.272;2023-12-20T07:56:18;97199.00;;;-4.44;100.00
77431;BME280;66498;48.564;19.272;2023-12-20T07:58:44;97203.31;;;-4.54;100.00
77431;BME280;66498;48.564;19.272;2023-12-20T08:01:10;97196.19;;;-4.41;100.00
77431;BME280;66498;48.564;19.272;2023-12-20T08:03:36;97201.97;;;-4.58;100.00
77431;BME280;66498;48.564;19.272;2023-12-20T08:06:02;97198.06;;;-4.33;100.00
77431;BME280;66498;48.564;19.272;2023-12-20T08:08:28;97192.91;;;-4.23;100.00
77431;BME280;66498;48.564;19.272;2023-12-20T08:10:54;97181.78;;;-3.85;100.00
77431;BME280;66498;48.564;19.272;2023-12-20T08:13:20;97174.84;;;-3.75;100.00
77431;BME280;66498;48.564;19.272;2023-12-20T08:15:50;97168.38;;;-3.69;100.00
77431;BME280;66498;48.564;19.272;2023-12-20T08:18:15;97164.28;;;-3.99;100.00
77431;BME280;66498;48.564;19.272;2023-12-20T08:20:41;97166.16;;;-4.11;100.00
77431;BME280;66498;48.564;19.272;2023-12-20T08:23:07;97168.84;;;-3.93;100.00
77431;BME280;66498;48.564;19.272;2023-12-20T08:25:32;97173.94;;;-3.84;100.00
77431;BME280;66498;48.564;19.272;2023-12-20T08:27:58;97169.53;;;-3.64;100.00
77431;BME280;66498;48.564;19.272;2023-12-20T08:30:23;97171.38;;;-3.46;100.00
77431;BME280;66498;48.564;19.272;2023-12-20T08:32:50;97175.34;;;-3.62;100.00
77431;BME280;66498;48.564;19.272;2023-12-20T08:35:15;97179.41;;;-3.59;100.00
77431;BME280;66498;48.564;19.272;2023-12-20T08:37:41;97185.84;;;-3.92;100.00
77431;BME280;66498;48.564;19.272;2023-12-20T08:40:07;97175.09;;;-4.15;100.00
77431;BME280;66498;48.564;19.272;2023-12-20T08:42:35;97175.94;;;-4.34;100.00
77431;BME280;66498;48.564;19.272;2023-12-20T08:45:01;97177.28;;;-4.49;100.00
77431;BME280;66498;48.564;19.272;2023-12-20T08:47:29;97184.16;;;-4.50;100.00
77431;BME280;66498;48.564;19.272;2023-12-20T08:49:54;97180.91;;;-4.13;100.00
77431;BME280;66498;48.564;19.272;2023-12-20T08:52:22;97177.31;;;-3.83;100.00
77431;BME280;66498;48.564;19.272;2023-12-20T08:54:49;97167.50;;;-3.60;100.00
77431;BME280;66498;48.564;19.272;2023-12-20T08:57:19;97161.03;;;-3.37;100.00
77431;BME280;66498;48.564;19.272;2023-12-20T08:59:44;97151.63;;;-3.36;100.00
77431;BME280;66498;48.564;19.272;2023-12-20T09:02:10;97150.50;;;-3.34;100.00
77431;BME280;66498;48.564;19.272;2023-12-20T09:04:35;97154.53;;;-3.31;100.00
77431;BME280;66498;48.564;19.272;2023-12-20T09:07:00;97158.13;;;-3.42;100.00
77431;BME280;66498;48.564;19.272;2023-12-20T09:09:26;97144.03;;;-3.38;100.00
77431;BME280;66498;48.564;19.272;2023-12-20T09:11:52;97161.13;;;-3.46;100.00
77431;BME280;66498;48.564;19.272;2023-12-20T09:14:17;97159.97;;;-3.34;100.00
77431;BME280;66498;48.564;19.272;2023-12-20T09:16:43;97161.81;;;-3.26;100.00
77431;BME280;66498;48.564;19.272;2023-12-20T09:19:08;97159.44;;;-2.92;100.00
77431;BME280;66498;48.564;19.272;2023-12-20T09:21:34;97164.09;;;-2.78;100.00
77431;BME280;66498;48.564;19.272;2023-12-20T09:23:59;97163.34;;;-2.70;100.00
77431;BME280;66498;48.564;19.272;2023-12-20T09:26:25;97153.72;;;-3.04;100.00
77431;BME280;66498;48.564;19.272;2023-12-20T09:28:50;97153.34;;;-3.09;100.00
77431;BME280;66498;48.564;19.272;2023-12-20T09:31:16;97150.44;;;-2.78;100.00
77431;BME280;66498;48.564;19.272;2023-12-20T09:33:41;97150.34;;;-3.04;100.00
77431;BME280;66498;48.564;19.272;2023-12-20T09:36:09;97142.81;;;-2.88;100.00
77431;BME280;66498;48.564;19.272;2023-12-20T09:38:34;97128.03;;;-2.86;100.00
77431;BME280;66498;48.564;19.272;2023-12-20T09:41:00;97116.50;;;-3.00;100.00
77431;BME280;66498;48.564;19.272;2023-12-20T09:43:29;97113.06;;;-3.08;100.00
77431;BME280;66498;48.564;19.272;2023-12-20T09:46:00;97108.59;;;-3.06;100.00
77431;BME280;66498;48.564;19.272;2023-12-20T09:48:27;97098.47;;;-3.08;100.00
77431;BME280;66498;48.564;19.272;2023-12-20T09:50:54;97087.91;;;-2.87;100.00
77431;BME280;66498;48.564;19.272;2023-12-20T09:53:19;97081.78;;;-2.68;100.00
77431;BME280;66498;48.564;19.272;2023-12-20T09:55:48;97090.44;;;-2.51;100.00
77431;BME280;66498;48.564;19.272;2023-12-20T09:58:14;97095.53;;;-2.33;100.00
77431;BME280;66498;48.564;19.272;2023-12-20T10:00:40;97089.94;;;-2.29;100.00
77431;BME280;66498;48.564;19.272;2023-12-20T10:03:06;97090.72;;;-2.54;100.00
77431;BME280;66498;48.564;19.272;2023-12-20T10:05:33;97082.72;;;-2.69;100.00
77431;BME280;66498;48.564;19.272;2023-12-20T10:07:59;97085.63;;;-2.46;100.00
77431;BME280;66498;48.564;19.272;2023-12-20T10:10:26;97084.53;;;-2.18;100.00
77431;BME280;66498;48.564;19.272;2023-12-20T10:13:07;97079.56;;;-2.11;100.00
77431;BME280;66498;48.564;19.272;2023-12-20T10:15:34;97082.44;;;-2.14;100.00
77431;BME280;66498;48.564;19.272;2023-12-20T10:18:01;97063.13;;;-1.92;100.00
77431;BME280;66498;48.564;19.272;2023-12-20T10:20:28;97054.59;;;-1.93;100.00
77431;BME280;66498;48.564;19.272;2023-12-20T10:22:57;97033.53;;;-1.88;100.00
77431;BME280;66498;48.564;19.272;2023-12-20T10:25:24;97034.53;;;-1.89;100.00
77431;BME280;66498;48.564;19.272;2023-12-20T10:27:52;97032.91;;;-1.90;100.00
77431;BME280;66498;48.564;19.272;2023-12-20T10:30:33;97028.78;;;-2.17;100.00
77431;BME280;66498;48.564;19.272;2023-12-20T10:32:59;97032.00;;;-1.73;100.00
77431;BME280;66498;48.564;19.272;2023-12-20T10:35:27;97028.63;;;-2.07;100.00
77431;BME280;66498;48.564;19.272;2023-12-20T10:37:55;97024.84;;;-2.29;100.00
77431;BME280;66498;48.564;19.272;2023-12-20T10:40:25;97035.22;;;-2.65;100.00
77431;BME280;66498;48.564;19.272;2023-12-20T10:42:53;97030.53;;;-2.70;100.00
77431;BME280;66498;48.564;19.272;2023-12-20T10:45:19;97025.91;;;-2.66;100.00
77431;BME280;66498;48.564;19.272;2023-12-20T10:47:46;97017.72;;;-2.44;100.00
77431;BME280;66498;48.564;19.272;2023-12-20T10:50:12;97023.13;;;-2.21;100.00
77431;BME280;66498;48.564;19.272;2023-12-20T10:52:38;97013.09;;;-2.32;100.00
77431;BME280;66498;48.564;19.272;2023-12-20T10:55:06;97015.44;;;-2.21;100.00
77431;BME280;66498;48.564;19.272;2023-12-20T10:57:32;97007.25;;;-2.08;100.00
77431;BME280;66498;48.564;19.272;2023-12-20T11:00:00;97010.13;;;-2.19;100.00
77431;BME280;66498;48.564;19.272;2023-12-20T11:02:30;97008.25;;;-2.35;100.00
77431;BME280;66498;48.564;19.272;2023-12-20T11:05:09;97003.13;;;-2.35;100.00
77431;BME280;66498;48.564;19.272;2023-12-20T11:07:39;96998.28;;;-2.38;100.00
77431;BME280;66498;48.564;19.272;2023-12-20T11:10:20;96995.38;;;-2.69;100.00
77431;BME280;66498;48.564;19.272;2023-12-20T11:13:03;96991.81;;;-2.50;100.00
77431;BME280;66498;48.564;19.272;2023-12-20T11:15:30;96986.63;;;-2.24;100.00
77431;BME280;66498;48.564;19.272;2023-12-20T11:17:56;96986.84;;;-2.09;100.00
77431;BME280;66498;48.564;19.272;2023-12-20T11:20:23;96984.28;;;-2.09;100.00
77431;BME280;66498;48.564;19.272;2023-12-20T11:22:54;96981.91;;;-1.95;100.00
77431;BME280;66498;48.564;19.272;2023-12-20T11:25:21;96972.66;;;-1.79;100.00
77431;BME280;66498;48.564;19.272;2023-12-20T11:28:07;96962.63;;;-1.91;100.00
77431;BME280;66498;48.564;19.272;2023-12-20T11:30:43;96962.03;;;-1.68;100.00
77431;BME280;66498;48.564;19.272;2023-12-20T11:33:10;96944.19;;;-1.61;100.00
77431;BME280;66498;48.564;19.272;2023-12-20T11:35:36;96948.41;;;-1.52;100.00
77431;BME280;66498;48.564;19.272;2023-12-20T11:38:02;96949.22;;;-1.52;100.00
77431;BME280;66498;48.564;19.272;2023-12-20T11:40:27;96955.44;;;-1.79;100.00
77431;BME280;66498;48.564;19.272;2023-12-20T11:42:53;96951.03;;;-2.03;100.00
77431;BME280;66498;48.564;19.272;2023-12-20T11:45:24;96953.84;;;-2.30;100.00
77431;BME280;66498;48.564;19.272;2023-12-20T11:47:51;96944.66;;;-2.33;100.00
77431;BME280;66498;48.564;19.272;2023-12-20T11:50:19;96946.31;;;-2.24;100.00
77431;BME280;66498;48.564;19.272;2023-12-20T11:52:46;96944.97;;;-2.36;100.00
77431;BME280;66498;48.564;19.272;2023-12-20T11:55:11;96939.63;;;-2.43;100.00
77431;BME280;66498;48.564;19.272;2023-12-20T11:57:38;96936.41;;;-2.10;100.00
77431;BME280;66498;48.564;19.272;2023-12-20T12:00:04;96945.59;;;-1.92;100.00
77431;BME280;66498;48.564;19.272;2023-12-20T12:02:30;96932.09;;;-1.77;100.00
77431;BME280;66498;48.564;19.272;2023-12-20T12:04:56;96934.38;;;-1.74;100.00
77431;BME280;66498;48.564;19.272;2023-12-20T12:07:24;96913.81;;;-1.66;100.00
77431;BME280;66498;48.564;19.272;2023-12-20T12:09:50;96908.00;;;-1.60;100.00
77431;BME280;66498;48.564;19.272;2023-12-20T12:12:16;96905.44;;;-1.44;100.00
77431;BME280;66498;48.564;19.272;2023-12-20T12:14:42;96902.69;;;-1.50;100.00
77431;BME280;66498;48.564;19.272;2023-12-20T12:17:14;96909.94;;;-1.62;100.00
77431;BME280;66498;48.564;19.272;2023-12-20T12:19:40;96896.44;;;-1.31;100.00
77431;BME280;66498;48.564;19.272;2023-12-20T12:24:44;96906.25;;;-1.27;100.00
77431;BME280;66498;48.564;19.272;2023-12-20T12:27:11;96896.72;;;-1.26;100.00
77431;BME280;66498;48.564;19.272;2023-12-20T12:29:37;96898.69;;;-1.28;100.00
77431;BME280;66498;48.564;19.272;2023-12-20T12:32:11;96901.09;;;-1.35;100.00
77431;BME280;66498;48.564;19.272;2023-12-20T12:34:37;96899.47;;;-1.36;100.00
77431;BME280;66498;48.564;19.272;2023-12-20T12:37:06;96892.53;;;-1.11;100.00
77431;BME280;66498;48.564;19.272;2023-12-20T12:39:31;96889.16;;;-1.03;100.00